Tiona, Pennsylvania
Current Conditions -  °F | °C
As of 8:53 AM on Saturday 25 Oct 2014 (Local Time) from KBFD Reporting Station
Overcast Overcast  
Wind Chill: 44°   Ceiling: 3600
Heat Index: 47°   Visibility: 9mi
Dew Point: 39°   Wind: 6mph
Humidity: 74%   Direction: 230°SW
Pressure: 29.89"   Gusts: NA
Location:  41.75°N, 79.07°W
Report Text: KBFD 251253Z AUTO 23005KT 9SM OVC036 08/04 A2989 RMK AO2 SLP126 T00830039
Loading
Personal Weather Stations






























Interactive Weather Map
Tropical Storm Tracking
New forecast layout! Learn more

10-Day Weather Forecast

Advertisements
Track Severe Weather on mobile